createdAt,value
2022-10-28T00:00:31.698Z,1008.60
2022-10-28T00:01:31.734Z,1008.54
2022-10-28T00:02:32.053Z,1008.55
2022-10-28T00:03:32.088Z,1008.58
2022-10-28T00:04:31.738Z,1008.60
2022-10-28T00:05:31.661Z,1008.56
2022-10-28T00:06:31.642Z,1008.58
2022-10-28T00:07:31.640Z,1008.54
2022-10-28T00:08:31.558Z,1008.55
2022-10-28T00:09:31.569Z,1008.56
2022-10-28T00:10:31.576Z,1008.48
2022-10-28T00:11:31.520Z,1008.51
2022-10-28T00:12:31.508Z,1008.46
2022-10-28T00:13:31.490Z,1008.51
2022-10-28T00:14:31.529Z,1008.48
2022-10-28T00:15:31.495Z,1008.51
2022-10-28T00:16:31.477Z,1008.49
2022-10-28T00:17:31.514Z,1008.48
2022-10-28T00:18:31.437Z,1008.55
2022-10-28T00:19:31.458Z,1008.51
2022-10-28T00:20:31.470Z,1008.51
2022-10-28T00:21:31.615Z,1008.53
2022-10-28T00:22:31.459Z,1008.52
2022-10-28T00:23:31.357Z,1008.51
2022-10-28T00:24:31.359Z,1008.48
2022-10-28T00:25:31.354Z,1008.49
2022-10-28T00:26:31.389Z,1008.48
2022-10-28T00:27:31.380Z,1008.50
2022-10-28T00:28:31.305Z,1008.52
2022-10-28T00:29:31.339Z,1008.52
2022-10-28T00:31:31.260Z,1008.53
2022-10-28T00:32:31.286Z,1008.52
2022-10-28T00:33:31.296Z,1008.52
2022-10-28T00:34:31.288Z,1008.48
2022-10-28T00:35:35.158Z,1008.49
2022-10-28T00:36:31.237Z,1008.50
2022-10-28T00:37:31.198Z,1008.49
2022-10-28T00:38:31.248Z,1008.47
2022-10-28T00:39:31.208Z,1008.46
2022-10-28T00:40:31.139Z,1008.47
2022-10-28T00:41:31.356Z,1008.45
2022-10-28T00:42:31.190Z,1008.47
2022-10-28T00:43:31.319Z,1008.47
2022-10-28T00:44:35.232Z,1008.45
2022-10-28T00:45:37.132Z,1008.41
2022-10-28T00:46:36.707Z,1008.41
2022-10-28T00:47:31.426Z,1008.34
2022-10-28T00:48:34.193Z,1008.30
2022-10-28T00:49:32.254Z,1008.33
2022-10-28T00:50:35.571Z,1008.35
2022-10-28T00:51:31.019Z,1008.33
2022-10-28T00:52:31.138Z,1008.28
2022-10-28T00:53:31.077Z,1008.26
2022-10-28T00:54:30.961Z,1008.26
2022-10-28T00:55:30.990Z,1008.25
2022-10-28T00:56:30.957Z,1008.23
2022-10-28T00:57:30.967Z,1008.21
2022-10-28T00:58:31.253Z,1008.16
2022-10-28T00:59:30.935Z,1008.20
2022-10-28T01:00:31.001Z,1008.21
2022-10-28T01:01:31.070Z,1008.12
2022-10-28T01:02:30.932Z,1008.15
2022-10-28T01:03:30.896Z,1008.16
2022-10-28T01:04:30.883Z,1008.09
2022-10-28T01:05:30.886Z,1008.02
2022-10-28T01:06:30.843Z,1008.09
2022-10-28T01:07:30.820Z,1008.07
2022-10-28T01:08:30.805Z,1008.14
2022-10-28T01:09:30.807Z,1008.15
2022-10-28T01:10:30.829Z,1008.19
2022-10-28T01:11:30.756Z,1008.12
2022-10-28T01:12:30.787Z,1008.12
2022-10-28T01:13:30.731Z,1008.08
2022-10-28T01:14:30.713Z,1008.07
2022-10-28T01:15:30.686Z,1008.07
2022-10-28T01:16:30.675Z,1008.06
2022-10-28T01:17:30.634Z,1008.05
2022-10-28T01:18:30.669Z,1008.15
2022-10-28T01:19:30.606Z,1008.01
2022-10-28T01:20:30.616Z,1007.97
2022-10-28T01:21:30.657Z,1008.00
2022-10-28T01:23:30.626Z,1008.13
2022-10-28T01:24:30.660Z,1007.96
2022-10-28T01:25:30.565Z,1008.01
2022-10-28T01:26:30.569Z,1008.05
2022-10-28T01:27:30.552Z,1008.07
2022-10-28T01:28:30.574Z,1008.05
2022-10-28T01:29:30.493Z,1008.04
2022-10-28T01:30:30.464Z,1008.04
2022-10-28T01:31:30.466Z,1008.03
2022-10-28T01:32:30.543Z,1008.07
2022-10-28T01:33:30.433Z,1008.04
2022-10-28T01:34:30.443Z,1008.05
2022-10-28T01:35:42.479Z,1008.06
2022-10-28T01:36:31.363Z,1008.03
2022-10-28T01:37:30.666Z,1008.05
2022-10-28T01:38:34.492Z,1008.05
2022-10-28T01:39:30.661Z,1008.02
2022-10-28T01:40:30.933Z,1008.03
2022-10-28T01:41:30.323Z,1008.01
2022-10-28T01:42:30.315Z,1008.01
2022-10-28T01:43:30.303Z,1007.99
2022-10-28T01:44:30.284Z,1007.96
2022-10-28T01:45:30.342Z,1007.98
2022-10-28T01:46:30.350Z,1007.99
2022-10-28T01:47:30.730Z,1007.99
2022-10-28T01:48:30.907Z,1008.02
2022-10-28T01:49:42.135Z,1008.01
2022-10-28T01:50:30.230Z,1007.99
2022-10-28T01:51:30.234Z,1007.98
2022-10-28T01:52:30.173Z,1008.03
2022-10-28T01:53:30.204Z,1008.00
2022-10-28T01:54:30.176Z,1007.99
2022-10-28T01:55:30.347Z,1008.01
2022-10-28T01:56:30.198Z,1008.07
2022-10-28T01:57:30.094Z,1008.09
2022-10-28T01:58:30.259Z,1008.07
2022-10-28T01:59:30.199Z,1008.04
2022-10-28T02:00:30.278Z,1008.06
2022-10-28T02:01:30.290Z,1008.07
2022-10-28T02:02:30.100Z,1008.03
2022-10-28T02:03:30.155Z,1008.06
2022-10-28T02:04:30.104Z,1008.02
2022-10-28T02:05:30.001Z,1008.12
2022-10-28T02:06:29.981Z,1008.12
2022-10-28T02:07:30.004Z,1008.13
2022-10-28T02:08:29.994Z,1008.15
2022-10-28T02:09:29.965Z,1008.14
2022-10-28T02:10:29.935Z,1008.19
2022-10-28T02:11:29.931Z,1008.21
2022-10-28T02:12:29.915Z,1008.21
2022-10-28T02:13:29.954Z,1008.21
2022-10-28T02:14:30.030Z,1008.21
2022-10-28T02:15:29.937Z,1008.21
2022-10-28T02:16:29.936Z,1008.21
2022-10-28T02:17:29.942Z,1008.24
2022-10-28T02:18:30.108Z,1008.21
2022-10-28T02:19:31.605Z,1008.18
2022-10-28T02:20:30.993Z,1008.15
2022-10-28T02:21:29.805Z,1008.17
2022-10-28T02:22:29.846Z,1008.15
2022-10-28T02:23:29.777Z,1008.14
2022-10-28T02:24:30.021Z,1008.13
2022-10-28T02:25:29.728Z,1008.14
2022-10-28T02:26:29.802Z,1008.10
2022-10-28T02:27:29.790Z,1008.07
2022-10-28T02:28:29.682Z,1008.08
2022-10-28T02:29:29.728Z,1008.04
2022-10-28T02:30:29.675Z,1008.04
2022-10-28T02:31:29.702Z,1007.99
2022-10-28T02:32:29.652Z,1007.99
2022-10-28T02:33:29.645Z,1007.99
2022-10-28T02:34:29.671Z,1007.95
2022-10-28T02:35:30.548Z,1007.99
2022-10-28T02:36:34.294Z,1007.97
2022-10-28T02:37:30.905Z,1008.01
2022-10-28T02:38:29.636Z,1007.98
2022-10-28T02:39:29.600Z,1008.03
2022-10-28T02:40:29.537Z,1008.05
2022-10-28T02:41:29.534Z,1008.00
2022-10-28T02:42:29.514Z,1008.00
2022-10-28T02:43:29.512Z,1008.02
2022-10-28T02:44:29.532Z,1008.02
2022-10-28T02:45:29.494Z,1008.01
2022-10-28T02:46:29.772Z,1008.04
2022-10-28T02:47:29.427Z,1008.00
2022-10-28T02:48:29.462Z,1008.05
2022-10-28T02:49:29.420Z,1007.99
2022-10-28T02:50:29.413Z,1008.02
2022-10-28T02:51:29.413Z,1008.07
2022-10-28T02:52:29.416Z,1008.10
2022-10-28T02:53:29.418Z,1008.13
2022-10-28T02:54:29.331Z,1008.14
2022-10-28T02:55:29.435Z,1008.09
2022-10-28T02:56:29.333Z,1008.05
2022-10-28T02:57:29.311Z,1008.04
2022-10-28T02:58:29.294Z,1008.02
2022-10-28T02:59:29.312Z,1008.01
2022-10-28T03:00:29.263Z,1007.99
2022-10-28T03:01:29.365Z,1007.96
2022-10-28T03:02:29.259Z,1007.94
2022-10-28T03:03:29.240Z,1007.96
2022-10-28T03:04:29.242Z,1007.98
2022-10-28T03:05:29.231Z,1007.99
2022-10-28T03:06:29.193Z,1007.99
2022-10-28T03:07:29.163Z,1007.96
2022-10-28T03:08:29.203Z,1007.91
2022-10-28T03:09:29.160Z,1007.92
2022-10-28T03:10:29.158Z,1007.92
2022-10-28T03:11:29.194Z,1007.90
2022-10-28T03:12:29.123Z,1007.95
2022-10-28T03:13:29.103Z,1008.00
2022-10-28T03:14:29.076Z,1007.97
2022-10-28T03:15:29.109Z,1007.93
2022-10-28T03:16:29.112Z,1007.91
2022-10-28T03:17:29.090Z,1007.91
2022-10-28T03:18:29.029Z,1007.94
2022-10-28T03:19:29.042Z,1007.95
2022-10-28T03:20:29.020Z,1007.92
2022-10-28T03:21:28.991Z,1007.88
2022-10-28T03:22:29.031Z,1007.87
2022-10-28T03:23:28.944Z,1007.84
2022-10-28T03:24:28.959Z,1007.89
2022-10-28T03:25:28.921Z,1007.84
2022-10-28T03:26:28.927Z,1007.81
2022-10-28T03:27:28.950Z,1007.84
2022-10-28T03:28:28.899Z,1007.85
2022-10-28T03:29:29.188Z,1007.79
2022-10-28T03:30:28.894Z,1007.77
2022-10-28T03:31:28.890Z,1007.73
2022-10-28T03:32:28.892Z,1007.77
2022-10-28T03:33:28.847Z,1007.71
2022-10-28T03:34:28.879Z,1007.72
2022-10-28T03:35:28.830Z,1007.70
2022-10-28T03:36:28.828Z,1007.78
2022-10-28T03:37:28.833Z,1007.76
2022-10-28T03:38:28.750Z,1007.73
2022-10-28T03:39:28.761Z,1007.76
2022-10-28T03:40:28.752Z,1007.72
2022-10-28T03:41:28.762Z,1007.63
2022-10-28T03:42:33.713Z,1007.68
2022-10-28T03:43:28.721Z,1007.67
2022-10-28T03:44:28.795Z,1007.67
2022-10-28T03:46:30.121Z,1007.66
2022-10-28T03:47:28.687Z,1007.70
2022-10-28T03:48:28.691Z,1007.65
2022-10-28T03:49:28.613Z,1007.64
2022-10-28T03:50:28.602Z,1007.62
2022-10-28T03:51:28.632Z,1007.61
2022-10-28T03:52:32.907Z,1007.59
2022-10-28T03:53:31.199Z,1007.60
2022-10-28T03:54:29.341Z,1007.64
2022-10-28T03:55:28.930Z,1007.62
2022-10-28T03:56:31.495Z,1007.63
2022-10-28T03:57:28.712Z,1007.64
2022-10-28T03:58:28.640Z,1007.68
2022-10-28T03:59:28.585Z,1007.66
2022-10-28T04:00:28.547Z,1007.66
2022-10-28T04:01:28.902Z,1007.65
2022-10-28T04:02:28.489Z,1007.64
2022-10-28T04:03:28.755Z,1007.68
2022-10-28T04:04:30.679Z,1007.69
2022-10-28T04:05:28.444Z,1007.70
2022-10-28T04:06:28.504Z,1007.72
2022-10-28T04:07:28.360Z,1007.67
2022-10-28T04:08:28.646Z,1007.69
2022-10-28T04:09:28.338Z,1007.67
2022-10-28T04:10:28.416Z,1007.69
2022-10-28T04:11:28.429Z,1007.66
2022-10-28T04:12:28.338Z,1007.66
2022-10-28T04:13:28.319Z,1007.62
2022-10-28T04:14:28.270Z,1007.69
2022-10-28T04:15:28.278Z,1007.68
2022-10-28T04:16:28.250Z,1007.65
2022-10-28T04:17:28.278Z,1007.65
2022-10-28T04:18:28.238Z,1007.63
2022-10-28T04:19:28.252Z,1007.65
2022-10-28T04:20:28.198Z,1007.65
2022-10-28T04:21:28.278Z,1007.64
2022-10-28T04:22:28.995Z,1007.65
2022-10-28T04:23:28.188Z,1007.65
2022-10-28T04:24:28.178Z,1007.63
2022-10-28T04:25:28.150Z,1007.67
2022-10-28T04:26:28.129Z,1007.63
2022-10-28T04:27:33.108Z,1007.65
2022-10-28T04:28:32.249Z,1007.72
2022-10-28T04:29:28.126Z,1007.68
2022-10-28T04:30:28.869Z,1007.72
2022-10-28T04:31:28.068Z,1007.72
2022-10-28T04:32:28.067Z,1007.77
2022-10-28T04:33:28.107Z,1007.83
2022-10-28T04:34:28.031Z,1007.80
2022-10-28T04:35:28.032Z,1007.82
2022-10-28T04:36:28.025Z,1007.80
2022-10-28T04:37:28.000Z,1007.76
2022-10-28T04:38:27.969Z,1007.75
2022-10-28T04:39:28.051Z,1007.75
2022-10-28T04:40:27.922Z,1007.75
2022-10-28T04:41:28.186Z,1007.80
2022-10-28T04:42:27.941Z,1007.78
2022-10-28T04:43:27.980Z,1007.76
2022-10-28T04:44:27.889Z,1007.78
2022-10-28T04:45:27.907Z,1007.79
2022-10-28T04:46:27.992Z,1007.76
2022-10-28T04:47:28.252Z,1007.70
2022-10-28T04:48:27.833Z,1007.70
2022-10-28T04:49:35.412Z,1007.75
2022-10-28T04:50:28.823Z,1007.73
2022-10-28T04:51:27.917Z,1007.72
2022-10-28T04:52:27.859Z,1007.70
2022-10-28T04:53:27.772Z,1007.74
2022-10-28T04:54:27.840Z,1007.73
2022-10-28T04:55:27.734Z,1007.66
2022-10-28T04:56:27.791Z,1007.66
2022-10-28T04:57:27.731Z,1007.68
2022-10-28T04:58:27.712Z,1007.63
2022-10-28T04:59:27.731Z,1007.56
2022-10-28T05:00:27.659Z,1007.56
2022-10-28T05:01:27.720Z,1007.53
2022-10-28T05:02:27.707Z,1007.50
2022-10-28T05:03:27.618Z,1007.52
2022-10-28T05:04:27.629Z,1007.51
2022-10-28T05:05:27.929Z,1007.53
2022-10-28T05:06:27.593Z,1007.44
2022-10-28T05:07:27.549Z,1007.46
2022-10-28T05:08:40.924Z,1007.46
2022-10-28T05:09:27.535Z,1007.49
2022-10-28T05:10:27.508Z,1007.49
2022-10-28T05:11:27.504Z,1007.49
2022-10-28T05:12:27.476Z,1007.48
2022-10-28T05:13:27.473Z,1007.46
2022-10-28T05:14:27.461Z,1007.51
2022-10-28T05:15:27.433Z,1007.49
2022-10-28T05:16:27.446Z,1007.53
2022-10-28T05:17:27.426Z,1007.50
2022-10-28T05:18:27.411Z,1007.46
2022-10-28T05:19:27.405Z,1007.49
2022-10-28T05:20:27.383Z,1007.50
2022-10-28T05:21:27.387Z,1007.53
2022-10-28T05:22:27.352Z,1007.48
2022-10-28T05:23:30.694Z,1007.43
2022-10-28T05:24:27.332Z,1007.52
2022-10-28T05:25:27.324Z,1007.49
2022-10-28T05:26:27.325Z,1007.53
2022-10-28T05:27:27.283Z,1007.54
2022-10-28T05:28:27.296Z,1007.50
2022-10-28T05:29:32.304Z,1007.53
2022-10-28T05:30:28.246Z,1007.49
2022-10-28T05:31:27.251Z,1007.49
2022-10-28T05:32:27.225Z,1007.42
2022-10-28T05:33:27.210Z,1007.33
2022-10-28T05:34:27.191Z,1007.35
2022-10-28T05:35:27.195Z,1007.33
2022-10-28T05:36:27.214Z,1007.31
2022-10-28T05:37:27.150Z,1007.33
2022-10-28T05:38:27.160Z,1007.33
2022-10-28T05:39:27.123Z,1007.41
2022-10-28T05:40:27.121Z,1007.49
2022-10-28T05:41:27.120Z,1007.52
2022-10-28T05:42:27.106Z,1007.51
2022-10-28T05:43:27.075Z,1007.54
2022-10-28T05:44:27.062Z,1007.59
2022-10-28T05:45:27.168Z,1007.67
2022-10-28T05:46:27.044Z,1007.68
2022-10-28T05:47:27.087Z,1007.76
2022-10-28T05:48:27.019Z,1007.78
2022-10-28T05:49:27.001Z,1007.80
2022-10-28T05:50:27.009Z,1007.71
2022-10-28T05:51:26.979Z,1007.59
2022-10-28T05:52:26.941Z,1007.55
2022-10-28T05:53:26.945Z,1007.49
2022-10-28T05:54:26.919Z,1007.45
2022-10-28T05:55:26.922Z,1007.52
2022-10-28T05:56:26.910Z,1007.50
2022-10-28T05:57:26.899Z,1007.50
2022-10-28T05:58:26.870Z,1007.56
2022-10-28T05:59:26.895Z,1007.62
2022-10-28T06:00:26.859Z,1007.60
2022-10-28T06:01:26.867Z,1007.66
2022-10-28T06:02:26.820Z,1007.68
2022-10-28T06:03:30.202Z,1007.61
2022-10-28T06:04:26.837Z,1007.61
2022-10-28T06:05:26.788Z,1007.66
2022-10-28T06:06:26.779Z,1007.63
2022-10-28T06:07:26.748Z,1007.64
2022-10-28T06:08:26.737Z,1007.62
2022-10-28T06:09:26.738Z,1007.65
2022-10-28T06:10:26.719Z,1007.64
2022-10-28T06:11:25.163Z,1007.65
2022-10-28T06:12:25.212Z,1007.67
2022-10-28T06:13:25.136Z,1007.66
2022-10-28T06:14:25.151Z,1007.68
2022-10-28T06:15:25.127Z,1007.71
2022-10-28T06:16:25.095Z,1007.72
2022-10-28T06:17:25.116Z,1007.73
2022-10-28T06:18:25.080Z,1007.75
2022-10-28T06:19:25.100Z,1007.78
2022-10-28T06:20:25.107Z,1007.81
2022-10-28T06:21:25.033Z,1007.85
2022-10-28T06:22:25.029Z,1007.87
2022-10-28T06:23:25.013Z,1007.82
2022-10-28T06:24:25.075Z,1007.86
2022-10-28T06:25:25.023Z,1007.86
2022-10-28T06:26:24.988Z,1007.86
2022-10-28T06:27:24.971Z,1007.88
2022-10-28T06:28:25.049Z,1007.92
2022-10-28T06:29:24.996Z,1007.85
2022-10-28T06:30:25.049Z,1007.90
2022-10-28T06:31:24.919Z,1007.91
2022-10-28T06:32:24.902Z,1007.90
2022-10-28T06:33:24.952Z,1007.85
2022-10-28T06:34:24.885Z,1007.80
2022-10-28T06:35:24.888Z,1007.80
2022-10-28T06:36:24.855Z,1007.79
2022-10-28T06:37:24.845Z,1007.86
2022-10-28T06:38:24.827Z,1007.85
2022-10-28T06:40:24.972Z,1007.84
2022-10-28T06:41:24.822Z,1007.90
2022-10-28T06:42:24.780Z,1007.88
2022-10-28T06:43:24.780Z,1007.89
2022-10-28T06:44:24.768Z,1007.95
2022-10-28T06:45:24.741Z,1007.96
2022-10-28T06:46:24.761Z,1007.97
2022-10-28T06:47:26.286Z,1008.00
2022-10-28T06:48:26.216Z,1007.96
2022-10-28T06:49:26.224Z,1007.97
2022-10-28T06:50:26.446Z,1007.96
2022-10-28T06:51:26.204Z,1007.92
2022-10-28T06:52:26.170Z,1007.87
2022-10-28T06:53:26.173Z,1007.84
2022-10-28T06:54:26.142Z,1007.83
2022-10-28T06:55:26.143Z,1007.83
2022-10-28T06:56:26.118Z,1007.85
2022-10-28T06:57:28.453Z,1007.86
2022-10-28T06:58:26.110Z,1007.78
2022-10-28T06:59:26.107Z,1007.78
2022-10-28T07:00:26.131Z,1007.83
2022-10-28T07:01:26.281Z,1007.84
2022-10-28T07:02:26.129Z,1007.85
2022-10-28T07:03:26.046Z,1007.88
2022-10-28T07:04:26.018Z,1007.95
2022-10-28T07:05:26.007Z,1007.92
2022-10-28T07:06:25.993Z,1007.90
2022-10-28T07:07:25.982Z,1007.90
2022-10-28T07:08:26.013Z,1007.93
2022-10-28T07:09:25.964Z,1007.95
2022-10-28T07:10:25.954Z,1007.94
2022-10-28T07:11:25.954Z,1007.98
2022-10-28T07:12:39.152Z,1007.92
2022-10-28T07:13:25.912Z,1007.94
2022-10-28T07:14:25.892Z,1007.90
2022-10-28T07:15:25.881Z,1007.92
2022-10-28T07:16:25.863Z,1007.91
2022-10-28T07:17:25.885Z,1007.95
2022-10-28T07:18:25.862Z,1007.98
2022-10-28T07:19:25.866Z,1008.00
2022-10-28T07:20:25.830Z,1008.00
2022-10-28T07:21:25.810Z,1008.03
2022-10-28T07:22:25.967Z,1008.01
2022-10-28T07:23:25.794Z,1008.03
2022-10-28T07:24:25.767Z,1007.99
2022-10-28T07:25:25.749Z,1007.99
2022-10-28T07:26:25.733Z,1008.05
2022-10-28T07:27:25.719Z,1008.06
2022-10-28T07:28:25.722Z,1007.98
2022-10-28T07:29:25.718Z,1007.99
2022-10-28T07:30:25.708Z,1007.96
2022-10-28T07:31:25.721Z,1007.99
2022-10-28T07:32:25.661Z,1007.98
2022-10-28T07:33:25.665Z,1007.94
2022-10-28T07:34:27.269Z,1008.03
2022-10-28T07:35:25.637Z,1008.02
2022-10-28T07:36:25.634Z,1008.02
2022-10-28T07:37:25.609Z,1008.09
2022-10-28T07:38:25.608Z,1008.13
2022-10-28T07:39:25.681Z,1008.09
2022-10-28T07:40:25.565Z,1008.10
2022-10-28T07:41:25.548Z,1008.11
2022-10-28T07:42:25.554Z,1008.06
2022-10-28T07:43:25.523Z,1007.99
2022-10-28T07:44:25.526Z,1008.04
2022-10-28T07:45:25.502Z,1008.07
2022-10-28T07:46:25.487Z,1008.09
2022-10-28T07:47:25.488Z,1008.05
2022-10-28T07:48:25.457Z,1007.92
2022-10-28T07:49:25.456Z,1007.92
2022-10-28T07:50:25.506Z,1007.97
2022-10-28T07:51:25.422Z,1008.01
2022-10-28T07:52:25.402Z,1008.02
2022-10-28T07:53:27.886Z,1008.04
2022-10-28T07:54:25.391Z,1007.99
2022-10-28T07:55:25.361Z,1007.98
2022-10-28T07:56:25.396Z,1007.98
2022-10-28T07:57:25.381Z,1008.01
2022-10-28T07:58:25.317Z,1007.99
2022-10-28T07:59:26.820Z,1007.92
2022-10-28T08:00:25.284Z,1007.91
2022-10-28T08:01:25.444Z,1007.92
2022-10-28T08:02:25.291Z,1007.95
2022-10-28T08:03:31.097Z,1007.91
2022-10-28T08:04:26.229Z,1007.91
2022-10-28T08:05:25.209Z,1007.93
2022-10-28T08:06:25.185Z,1007.88
2022-10-28T08:07:25.192Z,1007.88
2022-10-28T08:08:25.159Z,1007.86
2022-10-28T08:09:25.157Z,1007.85
2022-10-28T08:10:25.134Z,1007.86
2022-10-28T08:11:25.133Z,1007.84
2022-10-28T08:12:25.109Z,1007.85
2022-10-28T08:13:25.091Z,1007.82
2022-10-28T08:14:25.101Z,1007.83
2022-10-28T08:15:25.059Z,1007.87
2022-10-28T08:16:25.044Z,1007.80
2022-10-28T08:17:25.068Z,1007.79
2022-10-28T08:18:25.022Z,1007.75
2022-10-28T08:19:25.012Z,1007.75
2022-10-28T08:20:25.032Z,1007.71
2022-10-28T08:21:24.974Z,1007.70
2022-10-28T08:22:24.986Z,1007.73
2022-10-28T08:23:25.015Z,1007.66
2022-10-28T08:24:24.930Z,1007.58
2022-10-28T08:25:24.970Z,1007.53
2022-10-28T08:26:24.897Z,1007.52
2022-10-28T08:27:24.910Z,1007.53
2022-10-28T08:28:24.868Z,1007.48
2022-10-28T08:29:29.192Z,1007.50
2022-10-28T08:30:25.836Z,1007.57
2022-10-28T08:32:28.286Z,1007.53
2022-10-28T08:33:28.264Z,1007.46
2022-10-28T08:34:28.266Z,1007.47
2022-10-28T08:35:28.237Z,1007.43
2022-10-28T08:36:28.228Z,1007.43
2022-10-28T08:37:28.263Z,1007.39
2022-10-28T08:38:28.199Z,1007.38
2022-10-28T08:39:28.207Z,1007.38
2022-10-28T08:40:28.187Z,1007.34
2022-10-28T08:41:28.170Z,1007.36
2022-10-28T08:42:28.167Z,1007.38
2022-10-28T08:43:40.277Z,1007.34
2022-10-28T08:44:29.135Z,1007.34
2022-10-28T08:45:28.128Z,1007.30
2022-10-28T08:46:28.099Z,1007.28
2022-10-28T08:47:28.128Z,1007.30
2022-10-28T08:48:28.072Z,1007.31
2022-10-28T08:49:28.059Z,1007.22
2022-10-28T08:50:28.049Z,1007.23
2022-10-28T08:51:28.029Z,1007.22
2022-10-28T08:52:28.029Z,1007.21
2022-10-28T08:53:28.002Z,1007.18
2022-10-28T08:54:28.001Z,1007.22
2022-10-28T08:55:27.985Z,1007.21
2022-10-28T08:56:27.971Z,1007.21
2022-10-28T08:57:27.971Z,1007.26
2022-10-28T08:58:27.951Z,1007.24
2022-10-28T08:59:27.933Z,1007.25
2022-10-28T09:00:27.966Z,1007.23
2022-10-28T09:01:28.020Z,1007.22
2022-10-28T09:02:27.902Z,1007.22
2022-10-28T09:03:27.883Z,1007.25
2022-10-28T09:04:27.872Z,1007.25
2022-10-28T09:05:27.845Z,1007.23
2022-10-28T09:06:27.850Z,1007.18
2022-10-28T09:07:27.912Z,1007.10
2022-10-28T09:08:27.811Z,1007.11
2022-10-28T09:09:27.825Z,1007.07
2022-10-28T09:10:27.794Z,1007.03
2022-10-28T09:11:27.818Z,1007.03
2022-10-28T09:12:27.772Z,1007.02
2022-10-28T09:13:27.765Z,1007.00
2022-10-28T09:14:27.731Z,1006.97
2022-10-28T09:15:27.742Z,1007.00
2022-10-28T09:16:27.722Z,1006.94
2022-10-28T09:17:27.694Z,1006.95
2022-10-28T09:18:28.662Z,1006.97
2022-10-28T09:19:27.674Z,1007.01
2022-10-28T09:20:27.665Z,1007.04
2022-10-28T09:21:27.655Z,1007.00
2022-10-28T09:22:27.634Z,1006.96
2022-10-28T09:23:27.619Z,1006.96
2022-10-28T09:24:27.630Z,1006.94
2022-10-28T09:25:27.597Z,1006.87
2022-10-28T09:26:27.605Z,1006.88
2022-10-28T09:27:27.574Z,1006.94
2022-10-28T09:28:27.553Z,1006.89
2022-10-28T09:29:27.553Z,1006.91
2022-10-28T09:30:27.543Z,1006.85
2022-10-28T09:31:27.514Z,1006.82
2022-10-28T09:32:27.510Z,1006.81
2022-10-28T09:33:27.491Z,1006.74
2022-10-28T09:34:27.465Z,1006.77
2022-10-28T09:35:27.462Z,1006.65
2022-10-28T09:36:27.456Z,1006.57
2022-10-28T09:37:27.439Z,1006.65
2022-10-28T09:38:27.430Z,1006.64
2022-10-28T09:39:28.058Z,1006.64
2022-10-28T09:40:27.424Z,1006.60
2022-10-28T09:41:27.408Z,1006.56
2022-10-28T09:42:27.415Z,1006.59
2022-10-28T09:43:27.344Z,1006.58
2022-10-28T09:44:27.338Z,1006.53
2022-10-28T09:45:27.330Z,1006.52
2022-10-28T09:46:27.345Z,1006.55
2022-10-28T09:47:27.294Z,1006.55
2022-10-28T09:48:27.290Z,1006.55
2022-10-28T09:49:27.277Z,1006.63
2022-10-28T09:50:27.258Z,1006.59
2022-10-28T09:51:27.260Z,1006.53
2022-10-28T09:52:27.237Z,1006.59
2022-10-28T09:53:27.243Z,1006.60
2022-10-28T09:54:27.206Z,1006.65
2022-10-28T09:55:27.190Z,1006.61
2022-10-28T09:56:27.204Z,1006.68
2022-10-28T09:57:27.179Z,1006.70
2022-10-28T09:58:27.165Z,1006.71
2022-10-28T09:59:27.161Z,1006.68
2022-10-28T10:00:27.160Z,1006.67
2022-10-28T10:01:27.216Z,1006.66
2022-10-28T10:02:27.182Z,1006.65
2022-10-28T10:03:27.092Z,1006.62
2022-10-28T10:04:27.082Z,1006.64
2022-10-28T10:05:27.090Z,1006.51
2022-10-28T10:06:27.064Z,1006.42
2022-10-28T10:07:27.034Z,1006.41
2022-10-28T10:08:27.038Z,1006.40
2022-10-28T10:09:27.014Z,1006.50
2022-10-28T10:10:26.995Z,1006.51
2022-10-28T10:11:27.004Z,1006.46
2022-10-28T10:12:26.972Z,1006.55
2022-10-28T10:13:26.966Z,1006.52
2022-10-28T10:14:26.945Z,1006.48
2022-10-28T10:15:26.943Z,1006.44
2022-10-28T10:16:26.944Z,1006.44
2022-10-28T10:17:26.908Z,1006.49
2022-10-28T10:18:26.909Z,1006.49
2022-10-28T10:19:26.913Z,1006.50
2022-10-28T10:20:26.868Z,1006.51
2022-10-28T10:21:26.884Z,1006.47
2022-10-28T10:22:26.848Z,1006.48
2022-10-28T10:23:26.883Z,1006.49
2022-10-28T10:24:26.816Z,1006.56
2022-10-28T10:25:26.805Z,1006.54
2022-10-28T10:26:26.815Z,1006.56
2022-10-28T10:27:26.795Z,1006.53
2022-10-28T10:28:26.763Z,1006.57
2022-10-28T10:29:26.785Z,1006.55
2022-10-28T10:30:26.773Z,1006.50
2022-10-28T10:31:26.740Z,1006.57
2022-10-28T10:32:26.715Z,1006.57
2022-10-28T10:33:26.740Z,1006.50
2022-10-28T10:34:26.687Z,1006.61
2022-10-28T10:35:26.683Z,1006.52
2022-10-28T10:36:26.677Z,1006.52
2022-10-28T10:37:26.671Z,1006.46
2022-10-28T10:38:26.701Z,1006.49
2022-10-28T10:39:37.401Z,1006.48
2022-10-28T10:40:26.602Z,1006.58
2022-10-28T10:41:26.602Z,1006.52
2022-10-28T10:42:26.591Z,1006.50
2022-10-28T10:43:26.833Z,1006.45
2022-10-28T10:44:26.557Z,1006.54
2022-10-28T10:45:26.554Z,1006.47
2022-10-28T10:46:26.531Z,1006.45
2022-10-28T10:47:26.816Z,1006.49
2022-10-28T10:48:26.548Z,1006.45
2022-10-28T10:49:26.501Z,1006.42
2022-10-28T10:50:26.515Z,1006.38
2022-10-28T10:51:26.504Z,1006.35
2022-10-28T10:52:26.464Z,1006.37
2022-10-28T10:53:26.442Z,1006.31
2022-10-28T10:54:26.424Z,1006.30
2022-10-28T10:55:26.417Z,1006.28
2022-10-28T10:56:26.408Z,1006.30
2022-10-28T10:57:26.394Z,1006.21
2022-10-28T10:58:26.369Z,1006.17
2022-10-28T10:59:26.359Z,1006.20
2022-10-28T11:00:26.352Z,1006.19
2022-10-28T11:01:26.444Z,1006.12
2022-10-28T11:02:26.387Z,1006.14
2022-10-28T11:03:26.338Z,1006.12
2022-10-28T11:04:26.286Z,1006.11
2022-10-28T11:05:29.272Z,1006.10
2022-10-28T11:06:27.286Z,1006.12
2022-10-28T11:07:26.262Z,1006.12
2022-10-28T11:08:26.249Z,1006.14
2022-10-28T11:09:26.249Z,1006.10
2022-10-28T11:10:26.233Z,1006.08
2022-10-28T11:11:26.219Z,1006.09
2022-10-28T11:12:26.453Z,1006.09
2022-10-28T11:13:26.173Z,1006.01
2022-10-28T11:14:26.163Z,1006.05
2022-10-28T11:15:26.166Z,1006.01
2022-10-28T11:16:26.396Z,1006.00
2022-10-28T11:17:26.182Z,1006.00
2022-10-28T11:18:26.129Z,1005.93
2022-10-28T11:19:26.105Z,1005.89
2022-10-28T11:20:26.107Z,1005.91
2022-10-28T11:21:26.359Z,1005.87
2022-10-28T11:22:26.064Z,1005.83
2022-10-28T11:23:26.058Z,1005.83
2022-10-28T11:24:26.043Z,1005.84
2022-10-28T11:25:26.035Z,1005.87
2022-10-28T11:26:26.003Z,1005.85
2022-10-28T11:27:25.986Z,1005.82
2022-10-28T11:28:26.285Z,1005.78
2022-10-28T11:29:25.977Z,1005.78
2022-10-28T11:30:25.975Z,1005.83
2022-10-28T11:31:25.961Z,1005.76
2022-10-28T11:32:25.918Z,1005.84
2022-10-28T11:33:30.650Z,1005.85
2022-10-28T11:34:26.895Z,1005.82
2022-10-28T11:35:25.900Z,1005.79
2022-10-28T11:36:25.867Z,1005.86
2022-10-28T11:37:25.866Z,1005.76
2022-10-28T11:38:25.854Z,1005.76
2022-10-28T11:39:25.834Z,1005.76
2022-10-28T11:40:25.845Z,1005.77
2022-10-28T11:41:25.820Z,1005.81
2022-10-28T11:42:25.806Z,1005.78
2022-10-28T11:43:25.816Z,1005.77
2022-10-28T11:44:26.087Z,1005.76
2022-10-28T11:45:25.775Z,1005.76
2022-10-28T11:46:25.766Z,1005.78
2022-10-28T11:47:25.727Z,1005.78
2022-10-28T11:48:25.717Z,1005.84
2022-10-28T11:49:25.745Z,1005.79
2022-10-28T11:50:25.702Z,1005.75
2022-10-28T11:51:25.705Z,1005.76
2022-10-28T11:52:25.658Z,1005.77
2022-10-28T11:53:25.661Z,1005.78
2022-10-28T11:54:25.663Z,1005.78
2022-10-28T11:55:25.628Z,1005.78
2022-10-28T11:56:25.623Z,1005.75
2022-10-28T11:57:25.623Z,1005.78
2022-10-28T11:58:25.590Z,1005.81
2022-10-28T11:59:25.589Z,1005.83
2022-10-28T12:00:25.588Z,1005.80
2022-10-28T12:01:25.886Z,1005.77
2022-10-28T12:02:25.604Z,1005.80
2022-10-28T12:03:25.604Z,1005.77
2022-10-28T12:04:25.518Z,1005.79
2022-10-28T12:05:25.540Z,1005.75
2022-10-28T12:06:25.480Z,1005.74
2022-10-28T12:07:25.477Z,1005.75
2022-10-28T12:08:25.477Z,1005.71
2022-10-28T12:09:25.836Z,1005.68
2022-10-28T12:10:25.428Z,1005.71